sensor_id;sensor_type;location;lat;lon;timestamp;P1;durP1;ratioP1;P2;durP2;ratioP2
42194;SDS011;27863;49.440;11.102;2023-08-07T00:01:33;0.87;;;0.40;;
42194;SDS011;27863;49.440;11.102;2023-08-07T00:04:34;0.40;;;0.40;;
42194;SDS011;27863;49.440;11.102;2023-08-07T00:07:34;0.57;;;0.40;;
42194;SDS011;27863;49.440;11.102;2023-08-07T00:10:34;1.07;;;0.40;;
42194;SDS011;27863;49.440;11.102;2023-08-07T00:13:35;0.87;;;0.47;;
42194;SDS011;27863;49.440;11.102;2023-08-07T00:16:36;0.70;;;0.53;;
42194;SDS011;27863;49.440;11.102;2023-08-07T00:19:36;0.53;;;0.30;;
42194;SDS011;27863;49.440;11.102;2023-08-07T00:22:37;0.30;;;0.30;;
42194;SDS011;27863;49.440;11.102;2023-08-07T00:25:37;0.30;;;0.30;;
42194;SDS011;27863;49.440;11.102;2023-08-07T00:28:38;0.13;;;0.13;;
42194;SDS011;27863;49.440;11.102;2023-08-07T00:31:38;0.33;;;0.20;;
42194;SDS011;27863;49.440;11.102;2023-08-07T00:34:38;0.30;;;0.20;;
42194;SDS011;27863;49.440;11.102;2023-08-07T00:37:39;0.13;;;0.10;;
42194;SDS011;27863;49.440;11.102;2023-08-07T00:40:41;0.20;;;0.17;;
42194;SDS011;27863;49.440;11.102;2023-08-07T00:43:41;1.23;;;0.20;;
42194;SDS011;27863;49.440;11.102;2023-08-07T00:46:42;0.20;;;0.20;;
42194;SDS011;27863;49.440;11.102;2023-08-07T00:49:43;0.67;;;0.30;;
42194;SDS011;27863;49.440;11.102;2023-08-07T00:52:45;0.90;;;0.30;;
42194;SDS011;27863;49.440;11.102;2023-08-07T00:55:45;0.20;;;0.20;;
42194;SDS011;27863;49.440;11.102;2023-08-07T00:58:46;0.50;;;0.30;;
42194;SDS011;27863;49.440;11.102;2023-08-07T01:01:47;0.30;;;0.30;;
42194;SDS011;27863;49.440;11.102;2023-08-07T01:04:49;1.30;;;0.23;;
42194;SDS011;27863;49.440;11.102;2023-08-07T01:07:49;0.40;;;0.40;;
42194;SDS011;27863;49.440;11.102;2023-08-07T01:17:31;0.27;;;0.27;;
42194;SDS011;27863;49.440;11.102;2023-08-07T01:20:34;1.33;;;0.40;;
42194;SDS011;27863;49.440;11.102;2023-08-07T01:23:35;0.50;;;0.30;;
42194;SDS011;27863;49.440;11.102;2023-08-07T01:26:36;1.00;;;0.80;;
42194;SDS011;27863;49.440;11.102;2023-08-07T01:29:41;0.50;;;0.50;;
42194;SDS011;27863;49.440;11.102;2023-08-07T01:36:08;1.50;;;1.13;;
42194;SDS011;27863;49.440;11.102;2023-08-07T01:39:10;0.20;;;0.13;;
42194;SDS011;27863;49.440;11.102;2023-08-07T01:42:10;0.73;;;0.50;;
42194;SDS011;27863;49.440;11.102;2023-08-07T01:45:11;0.40;;;0.40;;
42194;SDS011;27863;49.440;11.102;2023-08-07T01:48:11;0.80;;;0.20;;
42194;SDS011;27863;49.440;11.102;2023-08-07T01:51:12;0.90;;;0.47;;
42194;SDS011;27863;49.440;11.102;2023-08-07T01:54:12;0.50;;;0.20;;
42194;SDS011;27863;49.440;11.102;2023-08-07T01:57:13;0.43;;;0.43;;
42194;SDS011;27863;49.440;11.102;2023-08-07T02:00:14;0.40;;;0.37;;
42194;SDS011;27863;49.440;11.102;2023-08-07T02:03:17;0.43;;;0.40;;
42194;SDS011;27863;49.440;11.102;2023-08-07T02:06:17;0.27;;;0.27;;
42194;SDS011;27863;49.440;11.102;2023-08-07T02:09:19;1.50;;;0.40;;
42194;SDS011;27863;49.440;11.102;2023-08-07T02:12:19;0.40;;;0.40;;
42194;SDS011;27863;49.440;11.102;2023-08-07T02:15:20;0.63;;;0.60;;
42194;SDS011;27863;49.440;11.102;2023-08-07T02:18:24;0.50;;;0.50;;
42194;SDS011;27863;49.440;11.102;2023-08-07T02:21:25;1.07;;;0.60;;
42194;SDS011;27863;49.440;11.102;2023-08-07T02:24:26;0.67;;;0.50;;
42194;SDS011;27863;49.440;11.102;2023-08-07T02:27:26;0.37;;;0.37;;
42194;SDS011;27863;49.440;11.102;2023-08-07T02:30:27;0.40;;;0.40;;
42194;SDS011;27863;49.440;11.102;2023-08-07T02:33:27;0.83;;;0.60;;
42194;SDS011;27863;49.440;11.102;2023-08-07T02:36:30;0.50;;;0.50;;
42194;SDS011;27863;49.440;11.102;2023-08-07T02:39:31;1.10;;;0.53;;
42194;SDS011;27863;49.440;11.102;2023-08-07T02:42:31;4.37;;;0.50;;
42194;SDS011;27863;49.440;11.102;2023-08-07T02:45:32;0.50;;;0.50;;
42194;SDS011;27863;49.440;11.102;2023-08-07T02:48:34;1.27;;;0.67;;
42194;SDS011;27863;49.440;11.102;2023-08-07T02:51:34;1.00;;;0.60;;
42194;SDS011;27863;49.440;11.102;2023-08-07T02:54:35;0.57;;;0.47;;
42194;SDS011;27863;49.440;11.102;2023-08-07T02:57:36;0.50;;;0.50;;
42194;SDS011;27863;49.440;11.102;2023-08-07T03:00:38;0.50;;;0.50;;
42194;SDS011;27863;49.440;11.102;2023-08-07T03:03:38;1.00;;;0.70;;
42194;SDS011;27863;49.440;11.102;2023-08-07T03:06:39;0.50;;;0.50;;
42194;SDS011;27863;49.440;11.102;2023-08-07T03:09:39;0.60;;;0.60;;
42194;SDS011;27863;49.440;11.102;2023-08-07T03:12:40;2.73;;;0.93;;
42194;SDS011;27863;49.440;11.102;2023-08-07T03:15:41;0.40;;;0.40;;
42194;SDS011;27863;49.440;11.102;2023-08-07T03:18:42;1.23;;;0.70;;
42194;SDS011;27863;49.440;11.102;2023-08-07T03:21:42;1.13;;;0.80;;
42194;SDS011;27863;49.440;11.102;2023-08-07T03:24:46;1.20;;;0.87;;
42194;SDS011;27863;49.440;11.102;2023-08-07T03:27:48;2.43;;;1.00;;
42194;SDS011;27863;49.440;11.102;2023-08-07T03:30:48;0.80;;;0.60;;
42194;SDS011;27863;49.440;11.102;2023-08-07T03:33:49;1.07;;;1.03;;
42194;SDS011;27863;49.440;11.102;2023-08-07T03:36:52;1.70;;;0.70;;
42194;SDS011;27863;49.440;11.102;2023-08-07T03:39:52;0.87;;;0.73;;
42194;SDS011;27863;49.440;11.102;2023-08-07T03:42:54;2.77;;;0.97;;
42194;SDS011;27863;49.440;11.102;2023-08-07T03:45:55;1.53;;;0.90;;
42194;SDS011;27863;49.440;11.102;2023-08-07T03:48:56;0.70;;;0.70;;
42194;SDS011;27863;49.440;11.102;2023-08-07T03:51:58;0.83;;;0.83;;
42194;SDS011;27863;49.440;11.102;2023-08-07T03:55:00;1.47;;;0.80;;
42194;SDS011;27863;49.440;11.102;2023-08-07T03:58:00;1.50;;;1.30;;
42194;SDS011;27863;49.440;11.102;2023-08-07T04:01:01;2.37;;;1.33;;
42194;SDS011;27863;49.440;11.102;2023-08-07T04:04:02;1.50;;;1.20;;
42194;SDS011;27863;49.440;11.102;2023-08-07T04:07:04;1.17;;;1.07;;
42194;SDS011;27863;49.440;11.102;2023-08-07T04:10:04;2.20;;;1.23;;
42194;SDS011;27863;49.440;11.102;2023-08-07T04:13:05;2.53;;;0.80;;
42194;SDS011;27863;49.440;11.102;2023-08-07T04:16:15;3.63;;;1.30;;
42194;SDS011;27863;49.440;11.102;2023-08-07T04:19:17;9.40;;;1.73;;
42194;SDS011;27863;49.440;11.102;2023-08-07T04:22:18;1.30;;;1.00;;
42194;SDS011;27863;49.440;11.102;2023-08-07T04:25:19;3.60;;;1.30;;
42194;SDS011;27863;49.440;11.102;2023-08-07T04:28:19;1.57;;;1.47;;
42194;SDS011;27863;49.440;11.102;2023-08-07T04:31:20;4.93;;;1.10;;
42194;SDS011;27863;49.440;11.102;2023-08-07T04:34:21;1.23;;;1.13;;
42194;SDS011;27863;49.440;11.102;2023-08-07T04:37:21;1.90;;;1.07;;
42194;SDS011;27863;49.440;11.102;2023-08-07T04:40:23;1.83;;;1.23;;
42194;SDS011;27863;49.440;11.102;2023-08-07T04:43:23;1.43;;;1.30;;
42194;SDS011;27863;49.440;11.102;2023-08-07T04:46:24;1.80;;;1.07;;
42194;SDS011;27863;49.440;11.102;2023-08-07T04:49:24;3.33;;;1.30;;
42194;SDS011;27863;49.440;11.102;2023-08-07T04:52:25;1.53;;;1.10;;
42194;SDS011;27863;49.440;11.102;2023-08-07T04:55:25;2.87;;;1.53;;
42194;SDS011;27863;49.440;11.102;2023-08-07T04:58:26;4.23;;;1.47;;
42194;SDS011;27863;49.440;11.102;2023-08-07T05:01:26;1.50;;;1.33;;
42194;SDS011;27863;49.440;11.102;2023-08-07T05:04:27;5.07;;;1.50;;
42194;SDS011;27863;49.440;11.102;2023-08-07T05:07:27;1.27;;;1.17;;
42194;SDS011;27863;49.440;11.102;2023-08-07T05:10:28;2.57;;;1.40;;
42194;SDS011;27863;49.440;11.102;2023-08-07T05:13:28;3.33;;;1.53;;
42194;SDS011;27863;49.440;11.102;2023-08-07T05:16:29;1.63;;;1.50;;
42194;SDS011;27863;49.440;11.102;2023-08-07T05:19:29;2.33;;;1.60;;
42194;SDS011;27863;49.440;11.102;2023-08-07T05:22:30;1.43;;;1.30;;
42194;SDS011;27863;49.440;11.102;2023-08-07T05:25:30;1.83;;;1.50;;
42194;SDS011;27863;49.440;11.102;2023-08-07T05:28:31;1.70;;;1.47;;
42194;SDS011;27863;49.440;11.102;2023-08-07T05:31:31;2.47;;;1.57;;
42194;SDS011;27863;49.440;11.102;2023-08-07T05:34:32;2.97;;;1.70;;
42194;SDS011;27863;49.440;11.102;2023-08-07T05:37:33;2.10;;;1.83;;
42194;SDS011;27863;49.440;11.102;2023-08-07T05:40:34;2.80;;;1.87;;
42194;SDS011;27863;49.440;11.102;2023-08-07T05:43:36;1.90;;;1.50;;
42194;SDS011;27863;49.440;11.102;2023-08-07T05:46:37;2.73;;;1.83;;
42194;SDS011;27863;49.440;11.102;2023-08-07T05:49:37;1.97;;;1.57;;
42194;SDS011;27863;49.440;11.102;2023-08-07T05:52:38;2.37;;;1.37;;
42194;SDS011;27863;49.440;11.102;2023-08-07T05:55:39;1.73;;;1.63;;
42194;SDS011;27863;49.440;11.102;2023-08-07T05:58:46;3.93;;;2.00;;
42194;SDS011;27863;49.440;11.102;2023-08-07T06:01:47;3.10;;;1.60;;
42194;SDS011;27863;49.440;11.102;2023-08-07T06:04:47;1.70;;;1.50;;
42194;SDS011;27863;49.440;11.102;2023-08-07T06:07:48;2.60;;;1.50;;
42194;SDS011;27863;49.440;11.102;2023-08-07T06:10:49;1.70;;;1.20;;
42194;SDS011;27863;49.440;11.102;2023-08-07T06:13:49;2.27;;;1.40;;
42194;SDS011;27863;49.440;11.102;2023-08-07T06:16:50;1.30;;;1.20;;
42194;SDS011;27863;49.440;11.102;2023-08-07T06:20:01;2.50;;;1.33;;
42194;SDS011;27863;49.440;11.102;2023-08-07T06:23:04;4.60;;;1.77;;
42194;SDS011;27863;49.440;11.102;2023-08-07T06:26:05;2.80;;;1.37;;
42194;SDS011;27863;49.440;11.102;2023-08-07T06:29:08;3.60;;;1.57;;
42194;SDS011;27863;49.440;11.102;2023-08-07T06:32:09;3.23;;;1.50;;
42194;SDS011;27863;49.440;11.102;2023-08-07T06:35:10;2.93;;;1.37;;
42194;SDS011;27863;49.440;11.102;2023-08-07T06:38:11;1.33;;;1.10;;
42194;SDS011;27863;49.440;11.102;2023-08-07T06:41:12;2.47;;;1.20;;
42194;SDS011;27863;49.440;11.102;2023-08-07T06:44:12;2.30;;;1.40;;
42194;SDS011;27863;49.440;11.102;2023-08-07T06:47:13;1.70;;;1.10;;
42194;SDS011;27863;49.440;11.102;2023-08-07T06:50:13;1.60;;;1.50;;
42194;SDS011;27863;49.440;11.102;2023-08-07T06:53:14;1.47;;;1.10;;
42194;SDS011;27863;49.440;11.102;2023-08-07T06:56:15;3.63;;;1.97;;
42194;SDS011;27863;49.440;11.102;2023-08-07T06:59:15;3.13;;;1.30;;
42194;SDS011;27863;49.440;11.102;2023-08-07T07:02:17;2.27;;;1.30;;
42194;SDS011;27863;49.440;11.102;2023-08-07T07:05:18;1.70;;;1.57;;
42194;SDS011;27863;49.440;11.102;2023-08-07T07:08:18;1.80;;;1.30;;
42194;SDS011;27863;49.440;11.102;2023-08-07T07:11:19;2.33;;;1.67;;
42194;SDS011;27863;49.440;11.102;2023-08-07T07:14:22;2.63;;;1.27;;
42194;SDS011;27863;49.440;11.102;2023-08-07T07:17:23;2.03;;;1.80;;
42194;SDS011;27863;49.440;11.102;2023-08-07T07:20:23;1.23;;;1.03;;
42194;SDS011;27863;49.440;11.102;2023-08-07T07:23:24;1.63;;;1.33;;
42194;SDS011;27863;49.440;11.102;2023-08-07T07:26:25;3.47;;;1.33;;
42194;SDS011;27863;49.440;11.102;2023-08-07T07:29:25;1.97;;;1.23;;
42194;SDS011;27863;49.440;11.102;2023-08-07T07:32:26;3.73;;;1.47;;
42194;SDS011;27863;49.440;11.102;2023-08-07T07:35:26;2.40;;;1.30;;
42194;SDS011;27863;49.440;11.102;2023-08-07T07:38:28;2.87;;;1.40;;
42194;SDS011;27863;49.440;11.102;2023-08-07T07:41:29;1.70;;;1.20;;
42194;SDS011;27863;49.440;11.102;2023-08-07T07:44:30;1.37;;;1.23;;
42194;SDS011;27863;49.440;11.102;2023-08-07T07:47:31;1.97;;;1.77;;
42194;SDS011;27863;49.440;11.102;2023-08-07T07:50:31;1.77;;;1.33;;
42194;SDS011;27863;49.440;11.102;2023-08-07T07:53:32;3.17;;;1.63;;
42194;SDS011;27863;49.440;11.102;2023-08-07T07:56:34;2.20;;;1.53;;
42194;SDS011;27863;49.440;11.102;2023-08-07T07:59:34;1.63;;;1.50;;
42194;SDS011;27863;49.440;11.102;2023-08-07T08:02:35;4.30;;;1.70;;
42194;SDS011;27863;49.440;11.102;2023-08-07T08:05:35;2.40;;;1.97;;
42194;SDS011;27863;49.440;11.102;2023-08-07T08:08:36;3.40;;;1.70;;
42194;SDS011;27863;49.440;11.102;2023-08-07T08:11:36;4.23;;;1.60;;
42194;SDS011;27863;49.440;11.102;2023-08-07T08:14:37;1.73;;;1.30;;
42194;SDS011;27863;49.440;11.102;2023-08-07T08:17:37;2.53;;;1.70;;
42194;SDS011;27863;49.440;11.102;2023-08-07T08:20:39;2.67;;;1.83;;
42194;SDS011;27863;49.440;11.102;2023-08-07T08:23:39;3.17;;;1.80;;
42194;SDS011;27863;49.440;11.102;2023-08-07T08:26:40;3.37;;;1.50;;
42194;SDS011;27863;49.440;11.102;2023-08-07T08:29:41;2.03;;;1.50;;
42194;SDS011;27863;49.440;11.102;2023-08-07T08:32:42;2.63;;;1.50;;
42194;SDS011;27863;49.440;11.102;2023-08-07T08:35:43;2.93;;;1.63;;
42194;SDS011;27863;49.440;11.102;2023-08-07T08:38:44;2.23;;;1.63;;
42194;SDS011;27863;49.440;11.102;2023-08-07T08:41:46;3.43;;;2.03;;
42194;SDS011;27863;49.440;11.102;2023-08-07T08:44:53;1.80;;;1.67;;
42194;SDS011;27863;49.440;11.102;2023-08-07T08:48:00;2.27;;;1.53;;
42194;SDS011;27863;49.440;11.102;2023-08-07T08:51:02;4.27;;;1.30;;
42194;SDS011;27863;49.440;11.102;2023-08-07T08:54:04;2.13;;;1.40;;
42194;SDS011;27863;49.440;11.102;2023-08-07T08:57:06;1.90;;;1.37;;
42194;SDS011;27863;49.440;11.102;2023-08-07T09:00:07;2.63;;;1.70;;
42194;SDS011;27863;49.440;11.102;2023-08-07T09:03:18;2.03;;;1.30;;
42194;SDS011;27863;49.440;11.102;2023-08-07T09:06:19;3.00;;;1.87;;
42194;SDS011;27863;49.440;11.102;2023-08-07T09:09:20;2.30;;;1.57;;
42194;SDS011;27863;49.440;11.102;2023-08-07T09:12:23;3.00;;;2.53;;
42194;SDS011;27863;49.440;11.102;2023-08-07T09:15:26;2.33;;;1.40;;
42194;SDS011;27863;49.440;11.102;2023-08-07T09:18:28;3.63;;;1.73;;
42194;SDS011;27863;49.440;11.102;2023-08-07T09:21:28;2.10;;;1.67;;
42194;SDS011;27863;49.440;11.102;2023-08-07T09:24:29;2.50;;;1.33;;
42194;SDS011;27863;49.440;11.102;2023-08-07T09:27:31;3.83;;;1.70;;
42194;SDS011;27863;49.440;11.102;2023-08-07T09:30:32;3.53;;;1.73;;
42194;SDS011;27863;49.440;11.102;2023-08-07T09:33:34;1.33;;;1.23;;
42194;SDS011;27863;49.440;11.102;2023-08-07T09:36:35;1.67;;;1.20;;
42194;SDS011;27863;49.440;11.102;2023-08-07T09:39:36;1.77;;;1.00;;
42194;SDS011;27863;49.440;11.102;2023-08-07T09:42:37;3.07;;;2.40;;
42194;SDS011;27863;49.440;11.102;2023-08-07T09:45:38;2.47;;;2.03;;
42194;SDS011;27863;49.440;11.102;2023-08-07T09:48:41;5.80;;;1.30;;
42194;SDS011;27863;49.440;11.102;2023-08-07T09:51:42;1.50;;;1.13;;
42194;SDS011;27863;49.440;11.102;2023-08-07T09:54:47;1.10;;;1.00;;
42194;SDS011;27863;49.440;11.102;2023-08-07T09:57:48;1.90;;;1.57;;
42194;SDS011;27863;49.440;11.102;2023-08-07T10:00:49;1.27;;;1.17;;
42194;SDS011;27863;49.440;11.102;2023-08-07T10:03:50;1.23;;;1.13;;
42194;SDS011;27863;49.440;11.102;2023-08-07T10:06:50;1.10;;;1.00;;
42194;SDS011;27863;49.440;11.102;2023-08-07T10:09:51;1.23;;;1.13;;
42194;SDS011;27863;49.440;11.102;2023-08-07T10:12:52;2.10;;;1.00;;
42194;SDS011;27863;49.440;11.102;2023-08-07T10:15:53;1.00;;;1.00;;
42194;SDS011;27863;49.440;11.102;2023-08-07T10:18:55;3.27;;;1.63;;
42194;SDS011;27863;49.440;11.102;2023-08-07T10:21:55;1.60;;;1.23;;
42194;SDS011;27863;49.440;11.102;2023-08-07T10:24:57;1.00;;;0.90;;
42194;SDS011;27863;49.440;11.102;2023-08-07T10:27:58;1.20;;;1.10;;
42194;SDS011;27863;49.440;11.102;2023-08-07T10:31:00;2.17;;;1.10;;
42194;SDS011;27863;49.440;11.102;2023-08-07T10:34:01;1.00;;;1.00;;
42194;SDS011;27863;49.440;11.102;2023-08-07T10:37:02;4.83;;;1.63;;
42194;SDS011;27863;49.440;11.102;2023-08-07T10:40:06;1.50;;;1.20;;
42194;SDS011;27863;49.440;11.102;2023-08-07T10:43:13;1.73;;;1.10;;
42194;SDS011;27863;49.440;11.102;2023-08-07T10:46:19;1.63;;;1.33;;
42194;SDS011;27863;49.440;11.102;2023-08-07T10:52:38;1.10;;;1.00;;
42194;SDS011;27863;49.440;11.102;2023-08-07T10:55:46;1.63;;;1.10;;
42194;SDS011;27863;49.440;11.102;2023-08-07T10:58:50;2.75;;;1.30;;
42194;SDS011;27863;49.440;11.102;2023-08-07T11:01:54;2.92;;;1.10;;
42194;SDS011;27863;49.440;11.102;2023-08-07T11:04:56;1.77;;;1.02;;
42194;SDS011;27863;49.440;11.102;2023-08-07T11:07:56;2.42;;;1.83;;
42194;SDS011;27863;49.440;11.102;2023-08-07T11:11:03;1.30;;;1.17;;
42194;SDS011;27863;49.440;11.102;2023-08-07T11:14:07;2.57;;;1.53;;
42194;SDS011;27863;49.440;11.102;2023-08-07T11:17:08;2.43;;;1.30;;
42194;SDS011;27863;49.440;11.102;2023-08-07T11:20:09;1.73;;;1.30;;
42194;SDS011;27863;49.440;11.102;2023-08-07T11:23:11;2.33;;;1.40;;
42194;SDS011;27863;49.440;11.102;2023-08-07T11:26:12;1.60;;;1.50;;
42194;SDS011;27863;49.440;11.102;2023-08-07T11:29:18;1.17;;;1.07;;
42194;SDS011;27863;49.440;11.102;2023-08-07T11:32:20;2.13;;;1.20;;
42194;SDS011;27863;49.440;11.102;2023-08-07T11:35:22;2.60;;;1.35;;
42194;SDS011;27863;49.440;11.102;2023-08-07T11:41:33;2.33;;;1.63;;
42194;SDS011;27863;49.440;11.102;2023-08-07T11:44:33;1.55;;;1.23;;
42194;SDS011;27863;49.440;11.102;2023-08-07T11:47:34;4.10;;;1.40;;
42194;SDS011;27863;49.440;11.102;2023-08-07T11:50:34;1.23;;;1.13;;
42194;SDS011;27863;49.440;11.102;2023-08-07T11:53:35;2.88;;;1.95;;
42194;SDS011;27863;49.440;11.102;2023-08-07T11:56:36;2.25;;;1.40;;
42194;SDS011;27863;49.440;11.102;2023-08-07T11:59:37;2.88;;;1.27;;
42194;SDS011;27863;49.440;11.102;2023-08-07T12:02:38;2.42;;;1.23;;
42194;SDS011;27863;49.440;11.102;2023-08-07T12:05:41;1.33;;;1.23;;
42194;SDS011;27863;49.440;11.102;2023-08-07T12:08:41;2.42;;;1.05;;
42194;SDS011;27863;49.440;11.102;2023-08-07T12:11:42;1.75;;;0.90;;
42194;SDS011;27863;49.440;11.102;2023-08-07T12:14:44;3.05;;;1.40;;
42194;SDS011;27863;49.440;11.102;2023-08-07T12:17:46;1.48;;;1.38;;
42194;SDS011;27863;49.440;11.102;2023-08-07T12:20:46;3.60;;;1.75;;
42194;SDS011;27863;49.440;11.102;2023-08-07T12:23:47;1.77;;;1.20;;
42194;SDS011;27863;49.440;11.102;2023-08-07T12:26:48;3.40;;;1.10;;
42194;SDS011;27863;49.440;11.102;2023-08-07T12:29:48;1.23;;;1.13;;
42194;SDS011;27863;49.440;11.102;2023-08-07T12:32:50;2.42;;;1.13;;
42194;SDS011;27863;49.440;11.102;2023-08-07T12:35:50;3.17;;;1.20;;
42194;SDS011;27863;49.440;11.102;2023-08-07T12:38:52;8.43;;;1.10;;
42194;SDS011;27863;49.440;11.102;2023-08-07T12:41:53;0.82;;;0.82;;
42194;SDS011;27863;49.440;11.102;2023-08-07T12:44:53;1.63;;;1.10;;
42194;SDS011;27863;49.440;11.102;2023-08-07T12:47:54;6.93;;;1.35;;
42194;SDS011;27863;49.440;11.102;2023-08-07T12:50:54;4.00;;;1.40;;
42194;SDS011;27863;49.440;11.102;2023-08-07T12:53:56;1.98;;;1.10;;
42194;SDS011;27863;49.440;11.102;2023-08-07T12:56:57;1.25;;;1.08;;
42194;SDS011;27863;49.440;11.102;2023-08-07T12:59:58;1.02;;;0.85;;
42194;SDS011;27863;49.440;11.102;2023-08-07T13:02:58;1.55;;;1.13;;
42194;SDS011;27863;49.440;11.102;2023-08-07T13:05:59;1.52;;;1.42;;
42194;SDS011;27863;49.440;11.102;2023-08-07T13:09:01;1.40;;;1.30;;
42194;SDS011;27863;49.440;11.102;2023-08-07T13:12:02;2.53;;;1.95;;
42194;SDS011;27863;49.440;11.102;2023-08-07T13:15:03;2.00;;;1.33;;
42194;SDS011;27863;49.440;11.102;2023-08-07T13:18:05;2.07;;;1.10;;
42194;SDS011;27863;49.440;11.102;2023-08-07T13:21:05;2.37;;;1.13;;
42194;SDS011;27863;49.440;11.102;2023-08-07T13:24:06;1.30;;;1.20;;
42194;SDS011;27863;49.440;11.102;2023-08-07T13:27:07;1.60;;;1.27;;
42194;SDS011;27863;49.440;11.102;2023-08-07T13:30:11;2.97;;;1.03;;
42194;SDS011;27863;49.440;11.102;2023-08-07T13:33:13;1.00;;;0.90;;
42194;SDS011;27863;49.440;11.102;2023-08-07T13:36:15;3.10;;;0.90;;
42194;SDS011;27863;49.440;11.102;2023-08-07T13:39:16;1.60;;;1.10;;
42194;SDS011;27863;49.440;11.102;2023-08-07T13:42:17;1.00;;;0.90;;
42194;SDS011;27863;49.440;11.102;2023-08-07T13:45:17;1.10;;;1.00;;
42194;SDS011;27863;49.440;11.102;2023-08-07T13:48:19;1.13;;;0.70;;
42194;SDS011;27863;49.440;11.102;2023-08-07T13:51:21;2.37;;;1.20;;
42194;SDS011;27863;49.440;11.102;2023-08-07T13:54:21;1.13;;;1.02;;
42194;SDS011;27863;49.440;11.102;2023-08-07T13:57:22;1.33;;;0.90;;
42194;SDS011;27863;49.440;11.102;2023-08-07T14:00:23;1.87;;;0.90;;
42194;SDS011;27863;49.440;11.102;2023-08-07T14:03:23;1.73;;;0.80;;
42194;SDS011;27863;49.440;11.102;2023-08-07T14:06:24;1.03;;;0.87;;
42194;SDS011;27863;49.440;11.102;2023-08-07T14:09:25;1.15;;;1.05;;
42194;SDS011;27863;49.440;11.102;2023-08-07T14:12:25;1.67;;;1.03;;
42194;SDS011;27863;49.440;11.102;2023-08-07T14:15:27;2.05;;;1.15;;
42194;SDS011;27863;49.440;11.102;2023-08-07T14:18:28;2.42;;;1.40;;
42194;SDS011;27863;49.440;11.102;2023-08-07T14:21:29;1.50;;;1.38;;
42194;SDS011;27863;49.440;11.102;2023-08-07T14:24:29;0.90;;;0.85;;
42194;SDS011;27863;49.440;11.102;2023-08-07T14:27:31;3.00;;;1.40;;
42194;SDS011;27863;49.440;11.102;2023-08-07T14:30:33;1.77;;;0.85;;
42194;SDS011;27863;49.440;11.102;2023-08-07T14:33:34;1.35;;;1.25;;
42194;SDS011;27863;49.440;11.102;2023-08-07T14:36:35;2.20;;;1.08;;
42194;SDS011;27863;49.440;11.102;2023-08-07T14:39:36;2.03;;;1.50;;
42194;SDS011;27863;49.440;11.102;2023-08-07T14:42:36;1.20;;;1.00;;
42194;SDS011;27863;49.440;11.102;2023-08-07T14:45:37;2.20;;;1.65;;
42194;SDS011;27863;49.440;11.102;2023-08-07T14:48:37;2.40;;;1.63;;
42194;SDS011;27863;49.440;11.102;2023-08-07T14:51:38;1.53;;;1.33;;
42194;SDS011;27863;49.440;11.102;2023-08-07T14:54:38;1.52;;;1.30;;
42194;SDS011;27863;49.440;11.102;2023-08-07T14:57:39;1.97;;;1.27;;
42194;SDS011;27863;49.440;11.102;2023-08-07T15:00:39;2.47;;;1.30;;
42194;SDS011;27863;49.440;11.102;2023-08-07T15:03:40;2.38;;;1.40;;
42194;SDS011;27863;49.440;11.102;2023-08-07T15:06:40;1.83;;;1.42;;
42194;SDS011;27863;49.440;11.102;2023-08-07T15:09:42;2.15;;;1.25;;
42194;SDS011;27863;49.440;11.102;2023-08-07T15:12:43;2.45;;;1.48;;
42194;SDS011;27863;49.440;11.102;2023-08-07T15:15:44;1.98;;;1.25;;
42194;SDS011;27863;49.440;11.102;2023-08-07T15:18:44;3.35;;;1.60;;
42194;SDS011;27863;49.440;11.102;2023-08-07T15:21:45;1.40;;;1.20;;
42194;SDS011;27863;49.440;11.102;2023-08-07T15:24:45;1.67;;;1.27;;
42194;SDS011;27863;49.440;11.102;2023-08-07T15:27:46;2.42;;;1.30;;
42194;SDS011;27863;49.440;11.102;2023-08-07T15:30:49;1.92;;;1.30;;
42194;SDS011;27863;49.440;11.102;2023-08-07T15:33:50;2.05;;;1.00;;
42194;SDS011;27863;49.440;11.102;2023-08-07T15:36:52;2.85;;;1.42;;
42194;SDS011;27863;49.440;11.102;2023-08-07T15:39:53;1.35;;;1.17;;
42194;SDS011;27863;49.440;11.102;2023-08-07T15:42:54;1.98;;;1.50;;
42194;SDS011;27863;49.440;11.102;2023-08-07T15:45:57;1.17;;;1.08;;
42194;SDS011;27863;49.440;11.102;2023-08-07T15:48:57;1.35;;;1.02;;
42194;SDS011;27863;49.440;11.102;2023-08-07T15:51:58;1.30;;;1.20;;
42194;SDS011;27863;49.440;11.102;2023-08-07T15:54:59;2.28;;;1.38;;
42194;SDS011;27863;49.440;11.102;2023-08-07T15:58:06;1.35;;;1.25;;
42194;SDS011;27863;49.440;11.102;2023-08-07T16:01:10;1.95;;;1.77;;
42194;SDS011;27863;49.440;11.102;2023-08-07T16:04:11;1.65;;;1.20;;
42194;SDS011;27863;49.440;11.102;2023-08-07T16:07:11;3.03;;;1.48;;
42194;SDS011;27863;49.440;11.102;2023-08-07T16:10:12;1.13;;;1.00;;
42194;SDS011;27863;49.440;11.102;2023-08-07T16:13:12;1.15;;;1.00;;
42194;SDS011;27863;49.440;11.102;2023-08-07T16:16:14;1.52;;;1.15;;
42194;SDS011;27863;49.440;11.102;2023-08-07T16:19:14;2.50;;;1.45;;
42194;SDS011;27863;49.440;11.102;2023-08-07T16:22:15;3.40;;;1.73;;
42194;SDS011;27863;49.440;11.102;2023-08-07T16:25:16;2.28;;;1.60;;
42194;SDS011;27863;49.440;11.102;2023-08-07T16:28:17;1.65;;;1.55;;
42194;SDS011;27863;49.440;11.102;2023-08-07T16:31:19;2.47;;;1.35;;
42194;SDS011;27863;49.440;11.102;2023-08-07T16:34:19;2.50;;;1.50;;
42194;SDS011;27863;49.440;11.102;2023-08-07T16:37:20;2.75;;;1.20;;
42194;SDS011;27863;49.440;11.102;2023-08-07T16:40:20;1.48;;;1.35;;
42194;SDS011;27863;49.440;11.102;2023-08-07T16:43:21;1.50;;;1.23;;
42194;SDS011;27863;49.440;11.102;2023-08-07T16:46:21;2.40;;;1.55;;
42194;SDS011;27863;49.440;11.102;2023-08-07T16:49:22;2.25;;;1.40;;
42194;SDS011;27863;49.440;11.102;2023-08-07T16:52:23;1.95;;;1.63;;
42194;SDS011;27863;49.440;11.102;2023-08-07T16:55:24;2.47;;;1.55;;
42194;SDS011;27863;49.440;11.102;2023-08-07T16:58:24;1.70;;;1.45;;
42194;SDS011;27863;49.440;11.102;2023-08-07T17:01:25;4.05;;;1.23;;
42194;SDS011;27863;49.440;11.102;2023-08-07T17:04:25;3.10;;;1.45;;
42194;SDS011;27863;49.440;11.102;2023-08-07T17:07:29;2.58;;;1.60;;
42194;SDS011;27863;49.440;11.102;2023-08-07T17:10:30;1.67;;;1.30;;
42194;SDS011;27863;49.440;11.102;2023-08-07T17:13:32;1.85;;;1.45;;
42194;SDS011;27863;49.440;11.102;2023-08-07T17:16:33;2.35;;;1.25;;
42194;SDS011;27863;49.440;11.102;2023-08-07T17:19:33;1.65;;;1.55;;
42194;SDS011;27863;49.440;11.102;2023-08-07T17:22:34;1.60;;;1.02;;
42194;SDS011;27863;49.440;11.102;2023-08-07T17:25:34;1.38;;;1.25;;
42194;SDS011;27863;49.440;11.102;2023-08-07T17:28:35;2.28;;;1.20;;
42194;SDS011;27863;49.440;11.102;2023-08-07T17:31:36;2.67;;;1.30;;
42194;SDS011;27863;49.440;11.102;2023-08-07T17:34:36;2.83;;;1.33;;
42194;SDS011;27863;49.440;11.102;2023-08-07T17:37:37;1.35;;;1.10;;
42194;SDS011;27863;49.440;11.102;2023-08-07T17:40:37;2.97;;;1.63;;
42194;SDS011;27863;49.440;11.102;2023-08-07T17:43:38;2.90;;;1.38;;
42194;SDS011;27863;49.440;11.102;2023-08-07T17:46:39;1.65;;;1.50;;
42194;SDS011;27863;49.440;11.102;2023-08-07T17:49:39;1.92;;;1.50;;
42194;SDS011;27863;49.440;11.102;2023-08-07T17:52:40;1.73;;;1.52;;
42194;SDS011;27863;49.440;11.102;2023-08-07T17:55:41;2.00;;;1.70;;
42194;SDS011;27863;49.440;11.102;2023-08-07T17:58:44;2.58;;;2.13;;
42194;SDS011;27863;49.440;11.102;2023-08-07T18:01:44;2.67;;;1.55;;
42194;SDS011;27863;49.440;11.102;2023-08-07T18:04:45;1.88;;;1.30;;
42194;SDS011;27863;49.440;11.102;2023-08-07T18:07:45;3.15;;;1.75;;
42194;SDS011;27863;49.440;11.102;2023-08-07T18:10:47;3.78;;;1.77;;